Hauptseite
METAR-TAF:

METAR-TAF

Flughäfen :

Militärflugplatz Piacenza

Piacenza, Italien

Breite: 44-55N, Länge: 009-44E, Höhe: 134 m

Beobachtung

Neuester Wetterbericht von vor 1 Stunde und 13 Minuten, um 05:55 UTC
Wind 6 kt aus West
Temperatur 20°C
Luftfeuchtigkeit 100%
Luftdruck 1014 hPa
Sichtweite 10 km oder mehr
keine Wolken unter 1500 m und keine Kumulonimbus oder Gewitterwolken

METAR: LIMS 180555Z 26006KT CAVOK 20/20 Q1014 RMK SKC VIS MIN 9999 WIND THR30 23002KT BLU

Zeit: 09:08 (07:08 UTC)


TAF: fehlend

Wetterbeobachtungen und Prognosen von mehr als 4000 Flughäfen (METAR und TAF Bericht).

Die verfügbaren Stationen werden durch gelbe und rote Markierungen auf der Karte dargestellt.

Führen Sie die Maus auf sie, um den Namen der Station zu sehen.

Darauf klicken, um die Beobachtung von Wetterbeobachtungen und Prognosen zu sehen.

Um die Karte zu ändern : klicken Sie auf den grünen Tasten mit einem schwarzen Kreuz Zum Vergrößern, auf den grünen Button mit einem Gedankenstrich zu verkleinern, oder auf die grünen Pfeile für benachbarte Karten.


METAR-TAF: